sensor_id;sensor_type;location;lat;lon;timestamp;pressure;altitude;pressure_sealevel;temperature;humidity
21234;BME280;10774;42.178;26.578;2022-07-04T00:00:27;100182.81;;;18.66;70.47
21234;BME280;10774;42.178;26.578;2022-07-04T00:02:52;100174.81;;;18.35;71.25
21234;BME280;10774;42.178;26.578;2022-07-04T00:05:18;100192.84;;;18.36;71.93
21234;BME280;10774;42.178;26.578;2022-07-04T00:07:47;100182.63;;;18.19;72.49
21234;BME280;10774;42.178;26.578;2022-07-04T00:10:15;100189.78;;;18.00;73.40
21234;BME280;10774;42.178;26.578;2022-07-04T00:12:41;100197.94;;;18.00;73.75
21234;BME280;10774;42.178;26.578;2022-07-04T00:15:08;100189.94;;;18.09;72.27
21234;BME280;10774;42.178;26.578;2022-07-04T00:17:34;100198.50;;;18.14;72.46
21234;BME280;10774;42.178;26.578;2022-07-04T00:19:59;100182.94;;;18.16;72.03
21234;BME280;10774;42.178;26.578;2022-07-04T00:22:25;100176.91;;;18.02;73.08
21234;BME280;10774;42.178;26.578;2022-07-04T00:24:51;100174.78;;;18.06;72.67
21234;BME280;10774;42.178;26.578;2022-07-04T00:27:16;100184.88;;;17.85;73.91
21234;BME280;10774;42.178;26.578;2022-07-04T00:29:41;100166.38;;;17.69;74.16
21234;BME280;10774;42.178;26.578;2022-07-04T00:32:07;100144.81;;;17.37;75.08
21234;BME280;10774;42.178;26.578;2022-07-04T00:34:33;100134.16;;;17.55;74.34
21234;BME280;10774;42.178;26.578;2022-07-04T00:36:58;100158.03;;;17.51;74.84
21234;BME280;10774;42.178;26.578;2022-07-04T00:39:24;100153.50;;;17.71;74.09
21234;BME280;10774;42.178;26.578;2022-07-04T00:41:49;100167.06;;;17.71;74.61
21234;BME280;10774;42.178;26.578;2022-07-04T00:44:15;100164.13;;;17.74;74.43
21234;BME280;10774;42.178;26.578;2022-07-04T00:46:42;100147.75;;;17.55;75.08
21234;BME280;10774;42.178;26.578;2022-07-04T00:49:09;100162.84;;;17.78;74.22
21234;BME280;10774;42.178;26.578;2022-07-04T00:51:37;100148.63;;;17.65;74.43
21234;BME280;10774;42.178;26.578;2022-07-04T00:54:04;100155.63;;;17.58;74.87
21234;BME280;10774;42.178;26.578;2022-07-04T00:56:30;100148.19;;;17.60;74.90
21234;BME280;10774;42.178;26.578;2022-07-04T00:58:55;100134.91;;;17.57;74.52
21234;BME280;10774;42.178;26.578;2022-07-04T01:01:22;100158.41;;;17.37;75.89
21234;BME280;10774;42.178;26.578;2022-07-04T01:03:48;100151.97;;;17.38;75.95
21234;BME280;10774;42.178;26.578;2022-07-04T01:06:15;100159.69;;;17.12;77.67
21234;BME280;10774;42.178;26.578;2022-07-04T01:08:42;100157.53;;;17.06;77.86
21234;BME280;10774;42.178;26.578;2022-07-04T01:11:09;100162.41;;;17.12;78.19
21234;BME280;10774;42.178;26.578;2022-07-04T01:13:35;100179.91;;;17.29;77.64
21234;BME280;10774;42.178;26.578;2022-07-04T01:16:02;100154.13;;;17.13;77.78
21234;BME280;10774;42.178;26.578;2022-07-04T01:18:27;100158.09;;;17.30;77.61
21234;BME280;10774;42.178;26.578;2022-07-04T01:20:53;100149.66;;;17.33;77.44
21234;BME280;10774;42.178;26.578;2022-07-04T01:23:18;100135.59;;;17.18;77.15
21234;BME280;10774;42.178;26.578;2022-07-04T01:25:44;100163.63;;;17.29;77.78
21234;BME280;10774;42.178;26.578;2022-07-04T01:28:09;100164.81;;;17.36;77.52
21234;BME280;10774;42.178;26.578;2022-07-04T01:30:36;100146.28;;;17.10;78.28
21234;BME280;10774;42.178;26.578;2022-07-04T01:33:03;100170.38;;;17.04;79.47
21234;BME280;10774;42.178;26.578;2022-07-04T01:35:29;100158.88;;;16.90;79.89
21234;BME280;10774;42.178;26.578;2022-07-04T01:37:54;100173.53;;;17.39;78.64
21234;BME280;10774;42.178;26.578;2022-07-04T01:40:20;100174.16;;;17.22;78.80
21234;BME280;10774;42.178;26.578;2022-07-04T01:42:45;100155.63;;;17.27;78.71
21234;BME280;10774;42.178;26.578;2022-07-04T01:45:11;100161.88;;;17.18;78.93
21234;BME280;10774;42.178;26.578;2022-07-04T01:47:38;100162.41;;;17.12;79.38
21234;BME280;10774;42.178;26.578;2022-07-04T01:50:05;100150.97;;;17.08;79.33
21234;BME280;10774;42.178;26.578;2022-07-04T01:52:30;100163.94;;;17.05;79.93
21234;BME280;10774;42.178;26.578;2022-07-04T01:54:56;100142.78;;;16.57;81.81
21234;BME280;10774;42.178;26.578;2022-07-04T01:57:22;100154.19;;;16.60;81.74
21234;BME280;10774;42.178;26.578;2022-07-04T01:59:47;100155.97;;;16.50;82.17
21234;BME280;10774;42.178;26.578;2022-07-04T02:02:31;100131.84;;;16.26;83.02
21234;BME280;10774;42.178;26.578;2022-07-04T02:04:57;100134.94;;;16.21;83.55
21234;BME280;10774;42.178;26.578;2022-07-04T02:07:22;100130.13;;;16.25;83.10
21234;BME280;10774;42.178;26.578;2022-07-04T02:09:48;100143.81;;;16.44;82.77
21234;BME280;10774;42.178;26.578;2022-07-04T02:12:13;100165.72;;;16.53;82.40
21234;BME280;10774;42.178;26.578;2022-07-04T02:14:58;100167.41;;;16.54;82.65
21234;BME280;10774;42.178;26.578;2022-07-04T02:17:23;100148.56;;;16.31;83.46
21234;BME280;10774;42.178;26.578;2022-07-04T02:19:49;100151.28;;;16.31;83.87
21234;BME280;10774;42.178;26.578;2022-07-04T02:22:15;100154.19;;;16.39;83.75
21234;BME280;10774;42.178;26.578;2022-07-04T02:24:40;100155.22;;;16.27;84.43
21234;BME280;10774;42.178;26.578;2022-07-04T02:27:06;100162.34;;;16.28;84.85
21234;BME280;10774;42.178;26.578;2022-07-04T02:29:32;100162.63;;;16.25;85.06
21234;BME280;10774;42.178;26.578;2022-07-04T02:31:57;100151.09;;;16.12;85.24
21234;BME280;10774;42.178;26.578;2022-07-04T02:34:23;100173.09;;;16.18;85.35
21234;BME280;10774;42.178;26.578;2022-07-04T02:36:49;100161.53;;;16.16;85.27
21234;BME280;10774;42.178;26.578;2022-07-04T02:39:15;100169.06;;;16.13;85.08
21234;BME280;10774;42.178;26.578;2022-07-04T02:41:40;100164.91;;;15.98;85.35
21234;BME280;10774;42.178;26.578;2022-07-04T02:44:06;100154.06;;;16.09;84.25
21234;BME280;10774;42.178;26.578;2022-07-04T02:46:31;100176.13;;;16.36;84.03
21234;BME280;10774;42.178;26.578;2022-07-04T02:49:00;100171.09;;;16.32;83.92
21234;BME280;10774;42.178;26.578;2022-07-04T02:51:26;100177.22;;;16.02;85.50
21234;BME280;10774;42.178;26.578;2022-07-04T02:53:52;100183.88;;;16.09;85.38
21234;BME280;10774;42.178;26.578;2022-07-04T02:56:18;100182.88;;;16.10;85.00
21234;BME280;10774;42.178;26.578;2022-07-04T02:58:43;100181.97;;;16.20;84.11
21234;BME280;10774;42.178;26.578;2022-07-04T03:01:09;100186.53;;;16.20;83.98
21234;BME280;10774;42.178;26.578;2022-07-04T03:03:35;100181.53;;;16.36;82.95
21234;BME280;10774;42.178;26.578;2022-07-04T03:06:01;100172.00;;;16.21;83.29
21234;BME280;10774;42.178;26.578;2022-07-04T03:08:27;100196.34;;;16.32;82.90
21234;BME280;10774;42.178;26.578;2022-07-04T03:10:52;100167.09;;;16.15;82.96
21234;BME280;10774;42.178;26.578;2022-07-04T03:13:18;100183.97;;;16.51;82.21
21234;BME280;10774;42.178;26.578;2022-07-04T03:15:44;100191.00;;;16.42;82.38
21234;BME280;10774;42.178;26.578;2022-07-04T03:18:10;100176.59;;;16.41;81.93
21234;BME280;10774;42.178;26.578;2022-07-04T03:20:36;100193.00;;;16.61;81.34
21234;BME280;10774;42.178;26.578;2022-07-04T03:23:01;100192.03;;;16.62;81.48
21234;BME280;10774;42.178;26.578;2022-07-04T03:25:26;100205.28;;;16.76;81.34
21234;BME280;10774;42.178;26.578;2022-07-04T03:27:52;100207.03;;;16.77;80.90
21234;BME280;10774;42.178;26.578;2022-07-04T03:30:18;100218.09;;;16.74;80.75
21234;BME280;10774;42.178;26.578;2022-07-04T03:32:43;100216.91;;;16.67;81.34
21234;BME280;10774;42.178;26.578;2022-07-04T03:35:08;100210.44;;;16.47;82.86
21234;BME280;10774;42.178;26.578;2022-07-04T03:37:34;100214.72;;;16.50;80.19
21234;BME280;10774;42.178;26.578;2022-07-04T03:39:59;100209.22;;;15.18;86.34
21234;BME280;10774;42.178;26.578;2022-07-04T03:42:25;100196.28;;;14.53;89.58
21234;BME280;10774;42.178;26.578;2022-07-04T03:44:50;100198.81;;;14.67;90.41
21234;BME280;10774;42.178;26.578;2022-07-04T03:47:16;100186.91;;;14.22;93.05
21234;BME280;10774;42.178;26.578;2022-07-04T03:49:41;100185.31;;;14.19;94.11
21234;BME280;10774;42.178;26.578;2022-07-04T03:52:07;100181.97;;;14.16;93.81
21234;BME280;10774;42.178;26.578;2022-07-04T03:54:32;100190.97;;;14.75;92.49
21234;BME280;10774;42.178;26.578;2022-07-04T03:56:58;100191.41;;;15.38;88.53
21234;BME280;10774;42.178;26.578;2022-07-04T03:59:23;100178.28;;;15.56;86.83
21234;BME280;10774;42.178;26.578;2022-07-04T04:01:49;100197.94;;;15.69;86.51
21234;BME280;10774;42.178;26.578;2022-07-04T04:04:14;100194.03;;;15.73;86.08
21234;BME280;10774;42.178;26.578;2022-07-04T04:06:58;100217.81;;;16.24;84.58
21234;BME280;10774;42.178;26.578;2022-07-04T04:09:23;100203.81;;;15.97;85.31
21234;BME280;10774;42.178;26.578;2022-07-04T04:11:50;100205.66;;;15.96;86.65
21234;BME280;10774;42.178;26.578;2022-07-04T04:14:16;100208.38;;;15.85;86.97
21234;BME280;10774;42.178;26.578;2022-07-04T04:16:43;100208.22;;;15.98;86.91
21234;BME280;10774;42.178;26.578;2022-07-04T04:19:09;100203.34;;;15.80;87.87
21234;BME280;10774;42.178;26.578;2022-07-04T04:21:35;100202.41;;;16.13;86.62
21234;BME280;10774;42.178;26.578;2022-07-04T04:24:01;100202.34;;;16.04;86.20
21234;BME280;10774;42.178;26.578;2022-07-04T04:26:27;100209.19;;;16.08;87.09
21234;BME280;10774;42.178;26.578;2022-07-04T04:28:52;100210.09;;;16.40;85.76
21234;BME280;10774;42.178;26.578;2022-07-04T04:31:17;100214.41;;;16.43;85.37
21234;BME280;10774;42.178;26.578;2022-07-04T04:33:43;100213.75;;;16.51;85.31
21234;BME280;10774;42.178;26.578;2022-07-04T04:36:08;100216.28;;;16.31;86.10
21234;BME280;10774;42.178;26.578;2022-07-04T04:38:34;100224.94;;;16.57;85.31
21234;BME280;10774;42.178;26.578;2022-07-04T04:40:59;100221.91;;;16.51;85.75
21234;BME280;10774;42.178;26.578;2022-07-04T04:43:25;100230.28;;;17.01;83.97
21234;BME280;10774;42.178;26.578;2022-07-04T04:45:50;100213.81;;;17.13;82.62
21234;BME280;10774;42.178;26.578;2022-07-04T04:48:16;100222.16;;;17.73;80.47
21234;BME280;10774;42.178;26.578;2022-07-04T04:50:41;100206.94;;;17.70;79.74
21234;BME280;10774;42.178;26.578;2022-07-04T04:53:07;100215.66;;;18.05;79.39
21234;BME280;10774;42.178;26.578;2022-07-04T04:55:32;100213.09;;;18.13;79.91
21234;BME280;10774;42.178;26.578;2022-07-04T04:57:57;100203.84;;;18.54;78.78
21234;BME280;10774;42.178;26.578;2022-07-04T05:00:23;100213.69;;;18.45;79.93
21234;BME280;10774;42.178;26.578;2022-07-04T05:02:48;100221.47;;;18.79;79.41
21234;BME280;10774;42.178;26.578;2022-07-04T05:05:14;100230.59;;;19.17;77.67
21234;BME280;10774;42.178;26.578;2022-07-04T05:07:39;100215.81;;;19.29;77.19
21234;BME280;10774;42.178;26.578;2022-07-04T05:10:05;100224.34;;;19.53;76.16
21234;BME280;10774;42.178;26.578;2022-07-04T05:12:31;100231.28;;;19.75;74.72
21234;BME280;10774;42.178;26.578;2022-07-04T05:14:57;100220.53;;;19.37;76.25
21234;BME280;10774;42.178;26.578;2022-07-04T05:17:22;100234.75;;;19.77;75.21
21234;BME280;10774;42.178;26.578;2022-07-04T05:19:48;100218.94;;;19.81;74.86
21234;BME280;10774;42.178;26.578;2022-07-04T05:22:14;100228.72;;;20.01;73.64
21234;BME280;10774;42.178;26.578;2022-07-04T05:24:40;100227.00;;;20.28;72.40
21234;BME280;10774;42.178;26.578;2022-07-04T05:27:06;100213.47;;;20.36;71.89
21234;BME280;10774;42.178;26.578;2022-07-04T05:29:32;100219.91;;;20.35;71.86
21234;BME280;10774;42.178;26.578;2022-07-04T05:31:57;100223.41;;;20.45;72.05
21234;BME280;10774;42.178;26.578;2022-07-04T05:34:23;100214.66;;;20.51;72.20
21234;BME280;10774;42.178;26.578;2022-07-04T05:36:48;100221.91;;;20.60;71.89
21234;BME280;10774;42.178;26.578;2022-07-04T05:39:14;100210.13;;;20.78;70.88
21234;BME280;10774;42.178;26.578;2022-07-04T05:41:39;100215.00;;;20.92;70.29
21234;BME280;10774;42.178;26.578;2022-07-04T05:44:05;100212.09;;;20.68;71.03
21234;BME280;10774;42.178;26.578;2022-07-04T05:46:30;100224.50;;;20.62;72.11
21234;BME280;10774;42.178;26.578;2022-07-04T05:48:56;100216.97;;;21.00;70.19
21234;BME280;10774;42.178;26.578;2022-07-04T05:51:21;100207.88;;;20.55;71.01
21234;BME280;10774;42.178;26.578;2022-07-04T05:53:47;100211.88;;;20.16;73.30
21234;BME280;10774;42.178;26.578;2022-07-04T05:56:12;100202.44;;;20.46;71.61
21234;BME280;10774;42.178;26.578;2022-07-04T05:58:38;100217.00;;;20.46;71.46
21234;BME280;10774;42.178;26.578;2022-07-04T06:01:04;100206.31;;;20.71;69.92
21234;BME280;10774;42.178;26.578;2022-07-04T06:03:29;100199.03;;;20.44;69.17
21234;BME280;10774;42.178;26.578;2022-07-04T06:05:55;100209.47;;;19.85;71.63
21234;BME280;10774;42.178;26.578;2022-07-04T06:08:21;100213.88;;;20.14;71.27
21234;BME280;10774;42.178;26.578;2022-07-04T06:10:47;100212.47;;;20.73;68.42
21234;BME280;10774;42.178;26.578;2022-07-04T06:13:12;100207.16;;;20.35;70.86
21234;BME280;10774;42.178;26.578;2022-07-04T06:15:38;100208.53;;;20.40;69.41
21234;BME280;10774;42.178;26.578;2022-07-04T06:18:03;100199.59;;;20.65;70.03
21234;BME280;10774;42.178;26.578;2022-07-04T06:20:29;100203.91;;;20.68;69.65
21234;BME280;10774;42.178;26.578;2022-07-04T06:22:55;100199.22;;;21.22;67.75
21234;BME280;10774;42.178;26.578;2022-07-04T06:25:20;100192.38;;;21.44;67.20
21234;BME280;10774;42.178;26.578;2022-07-04T06:27:48;100205.00;;;21.45;67.77
21234;BME280;10774;42.178;26.578;2022-07-04T06:30:14;100196.09;;;21.69;67.17
21234;BME280;10774;42.178;26.578;2022-07-04T06:32:55;100196.88;;;21.95;66.69
21234;BME280;10774;42.178;26.578;2022-07-04T06:35:23;100191.34;;;21.79;67.41
21234;BME280;10774;42.178;26.578;2022-07-04T06:38:08;100195.56;;;22.07;66.64
21234;BME280;10774;42.178;26.578;2022-07-04T06:40:34;100182.34;;;22.61;63.12
21234;BME280;10774;42.178;26.578;2022-07-04T06:43:00;100198.41;;;22.56;62.09
21234;BME280;10774;42.178;26.578;2022-07-04T06:45:26;100191.25;;;22.80;59.73
21234;BME280;10774;42.178;26.578;2022-07-04T06:47:52;100175.53;;;22.74;60.34
21234;BME280;10774;42.178;26.578;2022-07-04T06:50:18;100187.00;;;22.93;60.82
21234;BME280;10774;42.178;26.578;2022-07-04T06:52:44;100189.81;;;23.41;59.61
21234;BME280;10774;42.178;26.578;2022-07-04T06:55:10;100189.13;;;23.63;57.89
21234;BME280;10774;42.178;26.578;2022-07-04T06:57:36;100169.13;;;23.38;59.74
21234;BME280;10774;42.178;26.578;2022-07-04T07:00:04;100184.56;;;23.31;59.98
21234;BME280;10774;42.178;26.578;2022-07-04T07:02:30;100174.78;;;23.37;59.28
21234;BME280;10774;42.178;26.578;2022-07-04T07:04:56;100168.06;;;23.64;58.73
21234;BME280;10774;42.178;26.578;2022-07-04T07:07:23;100176.44;;;23.62;58.81
21234;BME280;10774;42.178;26.578;2022-07-04T07:09:52;100167.19;;;24.03;57.91
21234;BME280;10774;42.178;26.578;2022-07-04T07:12:18;100169.28;;;24.55;57.84
21234;BME280;10774;42.178;26.578;2022-07-04T07:14:44;100171.03;;;24.70;53.57
21234;BME280;10774;42.178;26.578;2022-07-04T07:17:09;100167.22;;;24.25;56.15
21234;BME280;10774;42.178;26.578;2022-07-04T07:19:35;100159.63;;;24.82;55.88
21234;BME280;10774;42.178;26.578;2022-07-04T07:22:00;100170.91;;;25.24;53.51
21234;BME280;10774;42.178;26.578;2022-07-04T07:24:26;100162.38;;;25.19;52.78
21234;BME280;10774;42.178;26.578;2022-07-04T07:26:55;100170.44;;;25.50;51.45
21234;BME280;10774;42.178;26.578;2022-07-04T07:29:21;100162.47;;;25.70;50.83
21234;BME280;10774;42.178;26.578;2022-07-04T07:31:46;100170.09;;;25.68;50.18
21234;BME280;10774;42.178;26.578;2022-07-04T07:34:12;100163.63;;;25.46;50.25
21234;BME280;10774;42.178;26.578;2022-07-04T07:36:37;100150.56;;;25.48;49.33
21234;BME280;10774;42.178;26.578;2022-07-04T07:39:03;100143.44;;;25.24;50.85
21234;BME280;10774;42.178;26.578;2022-07-04T07:41:28;100139.16;;;25.07;52.14
21234;BME280;10774;42.178;26.578;2022-07-04T07:43:53;100143.94;;;25.58;50.25
21234;BME280;10774;42.178;26.578;2022-07-04T07:46:19;100127.69;;;25.77;48.93
21234;BME280;10774;42.178;26.578;2022-07-04T07:48:44;100136.81;;;26.14;47.53
21234;BME280;10774;42.178;26.578;2022-07-04T07:51:10;100132.38;;;26.34;44.97
21234;BME280;10774;42.178;26.578;2022-07-04T07:53:36;100128.44;;;26.22;44.95
21234;BME280;10774;42.178;26.578;2022-07-04T07:56:01;100123.44;;;26.47;44.87
21234;BME280;10774;42.178;26.578;2022-07-04T07:58:27;100120.81;;;26.89;45.17
21234;BME280;10774;42.178;26.578;2022-07-04T08:00:53;100131.81;;;27.10;41.74
21234;BME280;10774;42.178;26.578;2022-07-04T08:03:18;100139.22;;;27.38;39.62
21234;BME280;10774;42.178;26.578;2022-07-04T08:06:02;100122.59;;;27.24;40.02
21234;BME280;10774;42.178;26.578;2022-07-04T08:08:28;100130.22;;;27.22;39.00
21234;BME280;10774;42.178;26.578;2022-07-04T08:10:54;100111.31;;;27.47;38.07
21234;BME280;10774;42.178;26.578;2022-07-04T08:13:19;100123.69;;;27.65;38.29
21234;BME280;10774;42.178;26.578;2022-07-04T08:15:45;100127.38;;;27.44;39.91
21234;BME280;10774;42.178;26.578;2022-07-04T08:18:10;100122.59;;;26.96;38.04
21234;BME280;10774;42.178;26.578;2022-07-04T08:20:35;100136.16;;;27.26;40.56
21234;BME280;10774;42.178;26.578;2022-07-04T08:23:01;100130.94;;;27.72;40.43
21234;BME280;10774;42.178;26.578;2022-07-04T08:25:26;100129.38;;;28.04;39.24
21234;BME280;10774;42.178;26.578;2022-07-04T08:27:52;100126.44;;;28.19;37.97
21234;BME280;10774;42.178;26.578;2022-07-04T08:30:17;100136.41;;;27.66;39.55
21234;BME280;10774;42.178;26.578;2022-07-04T08:32:43;100119.94;;;27.38;39.55
21234;BME280;10774;42.178;26.578;2022-07-04T08:35:08;100125.69;;;27.43;39.77
21234;BME280;10774;42.178;26.578;2022-07-04T08:37:34;100119.56;;;27.88;41.01
21234;BME280;10774;42.178;26.578;2022-07-04T08:39:59;100131.78;;;28.27;39.58
21234;BME280;10774;42.178;26.578;2022-07-04T08:42:25;100129.06;;;27.38;38.98
21234;BME280;10774;42.178;26.578;2022-07-04T08:44:54;100119.31;;;27.83;40.01
21234;BME280;10774;42.178;26.578;2022-07-04T08:47:23;100132.38;;;27.68;37.09
21234;BME280;10774;42.178;26.578;2022-07-04T08:50:07;100120.69;;;27.59;37.13
21234;BME280;10774;42.178;26.578;2022-07-04T08:52:40;100126.84;;;27.61;38.02
21234;BME280;10774;42.178;26.578;2022-07-04T08:55:08;100118.91;;;27.80;37.24
21234;BME280;10774;42.178;26.578;2022-07-04T08:57:53;100121.69;;;27.86;36.55
21234;BME280;10774;42.178;26.578;2022-07-04T09:00:38;100117.69;;;27.54;37.98
21234;BME280;10774;42.178;26.578;2022-07-04T09:03:04;100115.84;;;28.29;37.79
21234;BME280;10774;42.178;26.578;2022-07-04T09:05:31;100125.50;;;29.00;36.18
21234;BME280;10774;42.178;26.578;2022-07-04T09:07:58;100113.13;;;29.35;36.19
21234;BME280;10774;42.178;26.578;2022-07-04T09:10:24;100101.41;;;29.47;34.08
21234;BME280;10774;42.178;26.578;2022-07-04T09:12:50;100107.78;;;29.60;32.55
21234;BME280;10774;42.178;26.578;2022-07-04T09:15:16;100111.63;;;29.39;33.18
21234;BME280;10774;42.178;26.578;2022-07-04T09:17:41;100108.22;;;29.44;31.90
21234;BME280;10774;42.178;26.578;2022-07-04T09:20:19;100103.41;;;29.13;33.72
21234;BME280;10774;42.178;26.578;2022-07-04T09:22:46;100111.78;;;29.71;33.56
21234;BME280;10774;42.178;26.578;2022-07-04T09:25:12;100101.91;;;29.88;32.90
21234;BME280;10774;42.178;26.578;2022-07-04T09:27:41;100101.97;;;29.68;31.72
21234;BME280;10774;42.178;26.578;2022-07-04T09:30:10;100105.59;;;30.20;34.00
21234;BME280;10774;42.178;26.578;2022-07-04T09:35:02;100095.88;;;30.36;28.27
21234;BME280;10774;42.178;26.578;2022-07-04T09:37:55;100095.69;;;30.38;30.74
21234;BME280;10774;42.178;26.578;2022-07-04T09:40:29;100098.09;;;30.53;30.18
21234;BME280;10774;42.178;26.578;2022-07-04T09:42:58;100101.19;;;30.00;30.62
21234;BME280;10774;42.178;26.578;2022-07-04T09:45:25;100099.13;;;30.33;30.49
21234;BME280;10774;42.178;26.578;2022-07-04T09:47:56;100099.66;;;30.49;30.49
21234;BME280;10774;42.178;26.578;2022-07-04T09:50:23;100097.25;;;30.59;31.49
21234;BME280;10774;42.178;26.578;2022-07-04T09:53:00;100096.41;;;30.52;30.16
21234;BME280;10774;42.178;26.578;2022-07-04T09:55:35;100085.00;;;30.41;30.19
21234;BME280;10774;42.178;26.578;2022-07-04T09:58:05;100089.56;;;30.29;31.05
21234;BME280;10774;42.178;26.578;2022-07-04T10:00:33;100083.88;;;30.49;29.84
21234;BME280;10774;42.178;26.578;2022-07-04T10:03:24;100095.81;;;30.99;29.45
21234;BME280;10774;42.178;26.578;2022-07-04T10:06:06;100091.78;;;31.20;27.47
21234;BME280;10774;42.178;26.578;2022-07-04T10:08:32;100086.13;;;31.34;29.48
21234;BME280;10774;42.178;26.578;2022-07-04T10:11:02;100077.56;;;31.35;29.25
21234;BME280;10774;42.178;26.578;2022-07-04T10:13:28;100086.31;;;31.69;30.46
21234;BME280;10774;42.178;26.578;2022-07-04T10:15:54;100083.59;;;31.50;29.14
21234;BME280;10774;42.178;26.578;2022-07-04T10:18:21;100064.56;;;31.11;29.52
21234;BME280;10774;42.178;26.578;2022-07-04T10:20:48;100072.34;;;31.02;29.16
21234;BME280;10774;42.178;26.578;2022-07-04T10:23:15;100077.91;;;31.02;28.16
21234;BME280;10774;42.178;26.578;2022-07-04T10:25:41;100069.13;;;30.55;28.03
21234;BME280;10774;42.178;26.578;2022-07-04T10:28:07;100079.06;;;30.00;30.17
21234;BME280;10774;42.178;26.578;2022-07-04T10:30:36;100077.88;;;30.52;30.55
21234;BME280;10774;42.178;26.578;2022-07-04T10:33:07;100065.72;;;31.21;30.78
21234;BME280;10774;42.178;26.578;2022-07-04T10:35:48;100063.84;;;31.22;31.37
21234;BME280;10774;42.178;26.578;2022-07-04T10:38:14;100060.81;;;31.23;30.75
21234;BME280;10774;42.178;26.578;2022-07-04T10:40:47;100067.53;;;31.71;30.48
21234;BME280;10774;42.178;26.578;2022-07-04T10:45:50;100056.41;;;31.16;28.80
21234;BME280;10774;42.178;26.578;2022-07-04T10:48:23;100061.34;;;31.69;29.69
21234;BME280;10774;42.178;26.578;2022-07-04T10:51:01;100062.03;;;32.01;29.07
21234;BME280;10774;42.178;26.578;2022-07-04T10:53:28;100051.25;;;31.93;28.59
21234;BME280;10774;42.178;26.578;2022-07-04T10:56:11;100044.56;;;31.82;26.75
21234;BME280;10774;42.178;26.578;2022-07-04T10:58:50;100060.38;;;31.27;28.76
21234;BME280;10774;42.178;26.578;2022-07-04T11:01:16;100049.34;;;31.75;29.06
21234;BME280;10774;42.178;26.578;2022-07-04T11:03:47;100050.75;;;31.29;28.43
21234;BME280;10774;42.178;26.578;2022-07-04T11:09:17;100048.84;;;31.05;28.82
21234;BME280;10774;42.178;26.578;2022-07-04T11:11:55;100047.47;;;31.14;28.27
21234;BME280;10774;42.178;26.578;2022-07-04T11:17:28;100035.66;;;31.73;29.36
21234;BME280;10774;42.178;26.578;2022-07-04T11:20:05;100023.13;;;31.16;30.36
21234;BME280;10774;42.178;26.578;2022-07-04T11:22:32;100020.41;;;31.34;29.97
21234;BME280;10774;42.178;26.578;2022-07-04T11:24:58;100025.72;;;31.84;29.59
21234;BME280;10774;42.178;26.578;2022-07-04T11:27:24;100022.13;;;32.25;29.58
21234;BME280;10774;42.178;26.578;2022-07-04T11:29:53;100013.25;;;32.59;29.28
21234;BME280;10774;42.178;26.578;2022-07-04T11:32:20;100009.38;;;32.48;28.99
21234;BME280;10774;42.178;26.578;2022-07-04T11:34:46;100003.66;;;32.31;29.47
21234;BME280;10774;42.178;26.578;2022-07-04T11:37:13;100008.69;;;32.76;28.92
21234;BME280;10774;42.178;26.578;2022-07-04T11:39:39;100002.53;;;32.97;27.79
21234;BME280;10774;42.178;26.578;2022-07-04T11:42:04;99995.50;;;32.60;27.33
21234;BME280;10774;42.178;26.578;2022-07-04T11:44:48;100004.28;;;31.91;29.25
21234;BME280;10774;42.178;26.578;2022-07-04T11:47:43;100001.56;;;32.80;29.74
21234;BME280;10774;42.178;26.578;2022-07-04T11:50:13;100008.16;;;33.26;28.25
21234;BME280;10774;42.178;26.578;2022-07-04T11:52:49;99993.66;;;33.24;28.62
21234;BME280;10774;42.178;26.578;2022-07-04T11:55:19;99985.56;;;33.63;29.56
21234;BME280;10774;42.178;26.578;2022-07-04T11:57:49;99996.91;;;33.73;30.59
21234;BME280;10774;42.178;26.578;2022-07-04T12:00:21;99993.03;;;34.02;30.29
21234;BME280;10774;42.178;26.578;2022-07-04T12:02:50;99976.47;;;33.96;29.66
21234;BME280;10774;42.178;26.578;2022-07-04T12:05:16;99985.56;;;33.91;30.31
21234;BME280;10774;42.178;26.578;2022-07-04T12:07:44;99982.09;;;33.55;29.85
21234;BME280;10774;42.178;26.578;2022-07-04T12:10:14;99990.41;;;33.15;29.58
21234;BME280;10774;42.178;26.578;2022-07-04T12:13:00;99975.41;;;33.85;30.55
21234;BME280;10774;42.178;26.578;2022-07-04T12:15:48;99988.00;;;34.33;29.95
21234;BME280;10774;42.178;26.578;2022-07-04T12:18:25;99981.69;;;34.54;29.33
21234;BME280;10774;42.178;26.578;2022-07-04T12:20:52;99976.31;;;34.02;28.88
21234;BME280;10774;42.178;26.578;2022-07-04T12:23:20;99980.53;;;34.22;29.02
21234;BME280;10774;42.178;26.578;2022-07-04T12:25:49;99973.16;;;34.44;28.28
21234;BME280;10774;42.178;26.578;2022-07-04T12:28:16;99991.56;;;34.62;27.91
21234;BME280;10774;42.178;26.578;2022-07-04T12:30:49;99987.13;;;34.83;27.70
21234;BME280;10774;42.178;26.578;2022-07-04T12:33:18;99986.94;;;34.90;27.74
21234;BME280;10774;42.178;26.578;2022-07-04T12:46:08;99984.94;;;34.68;27.64
21234;BME280;10774;42.178;26.578;2022-07-04T12:48:34;99974.16;;;34.38;27.14
21234;BME280;10774;42.178;26.578;2022-07-04T12:51:17;99985.16;;;34.45;27.37
21234;BME280;10774;42.178;26.578;2022-07-04T12:53:44;99968.91;;;34.25;28.95
21234;BME280;10774;42.178;26.578;2022-07-04T12:56:26;99966.69;;;33.93;29.62
21234;BME280;10774;42.178;26.578;2022-07-04T12:58:52;99972.44;;;34.03;30.52
21234;BME280;10774;42.178;26.578;2022-07-04T13:01:17;99970.13;;;34.84;30.05
21234;BME280;10774;42.178;26.578;2022-07-04T13:03:42;99974.44;;;34.92;29.44